Time,TemperatureF,DewpointF,PressureIn,WindDirection,WindDirectionDegrees,WindSpeedMPH,WindSpeedGustMPH,Humidity,HourlyPrecipIn,Conditions,Clouds,dailyrainin,SoftwareType,DateUTC
2013-08-24 00:04:00,61.6,58.9,30.08,SE,126,1.0,1.0,91,0.00,,,0.00,Wunderground v.1.15,2013-08-24 05:04:00,
2013-08-24 00:10:00,61.7,59.0,30.09,SE,126,1.0,1.0,91,0.00,,,0.00,Wunderground v.1.15,2013-08-24 05:10:00,
2013-08-24 00:16:00,61.7,59.0,30.09,SE,131,1.0,2.0,91,0.00,,,0.00,Wunderground v.1.15,2013-08-24 05:16:00,
2013-08-24 00:22:00,61.7,59.0,30.09,SE,127,1.0,3.0,91,0.00,,,0.00,Wunderground v.1.15,2013-08-24 05:22:00,
2013-08-24 00:28:00,61.4,58.7,30.09,SSW,204,1.0,1.0,91,0.00,,,0.00,Wunderground v.1.15,2013-08-24 05:28:00,
2013-08-24 00:34:00,61.2,58.6,30.09,SSW,198,0.0,0.0,91,0.00,,,0.00,Wunderground v.1.15,2013-08-24 05:34:00,
2013-08-24 00:40:00,61.0,58.7,30.09,ESE,110,0.0,1.0,92,0.00,,,0.00,Wunderground v.1.15,2013-08-24 05:40:00,
2013-08-24 00:46:00,60.9,58.6,30.09,ESE,113,0.0,0.0,92,0.00,,,0.00,Wunderground v.1.15,2013-08-24 05:46:00,
2013-08-24 00:52:00,60.7,58.4,30.09,ESE,115,0.0,2.0,92,0.00,,,0.00,Wunderground v.1.15,2013-08-24 05:52:00,
2013-08-24 00:58:00,60.6,58.3,30.09,ESE,117,0.0,1.0,92,0.00,,,0.00,Wunderground v.1.15,2013-08-24 05:58:00,
2013-08-24 01:03:00,60.4,58.1,30.10,ESE,117,0.0,1.0,92,0.00,,,0.00,Wunderground v.1.15,2013-08-24 06:03:00,
2013-08-24 01:08:00,60.4,58.4,30.10,ESE,117,0.0,1.0,93,0.00,,,0.00,Wunderground v.1.15,2013-08-24 06:08:00,
2013-08-24 01:14:00,60.4,58.4,30.10,ESE,117,0.0,0.0,93,0.00,,,0.00,Wunderground v.1.15,2013-08-24 06:14:00,
2013-08-24 01:20:00,60.3,58.3,30.10,ESE,117,0.0,0.0,93,0.00,,,0.00,Wunderground v.1.15,2013-08-24 06:20:00,
2013-08-24 01:26:00,60.2,58.2,30.10,ESE,119,0.0,0.0,93,0.00,,,0.00,Wunderground v.1.15,2013-08-24 06:26:00,
2013-08-24 01:32:00,60.1,58.1,30.10,ESE,119,0.0,1.0,93,0.00,,,0.00,Wunderground v.1.15,2013-08-24 06:32:00,
2013-08-24 01:38:00,60.0,58.0,30.10,SE,128,1.0,2.0,93,0.00,,,0.00,Wunderground v.1.15,2013-08-24 06:38:00,
2013-08-24 01:44:00,59.8,57.8,30.10,SE,142,1.0,2.0,93,0.00,,,0.00,Wunderground v.1.15,2013-08-24 06:44:00,
2013-08-24 01:50:00,59.7,57.7,30.10,SE,142,0.0,2.0,93,0.00,,,0.00,Wunderground v.1.15,2013-08-24 06:50:00,
2013-08-24 01:56:00,59.5,57.5,30.10,SE,144,0.0,1.0,93,0.00,,,0.00,Wunderground v.1.15,2013-08-24 06:56:00,
2013-08-24 02:02:00,59.4,57.4,30.10,SE,144,0.0,1.0,93,0.00,,,0.00,Wunderground v.1.15,2013-08-24 07:02:00,
2013-08-24 02:08:00,59.4,57.7,30.10,SE,146,0.0,2.0,94,0.00,,,0.00,Wunderground v.1.15,2013-08-24 07:08:00,
2013-08-24 02:14:00,59.3,57.6,30.10,SE,146,0.0,0.0,94,0.00,,,0.00,Wunderground v.1.15,2013-08-24 07:14:00,
2013-08-24 02:20:00,59.2,57.5,30.10,SE,146,0.0,1.0,94,0.00,,,0.00,Wunderground v.1.15,2013-08-24 07:20:00,
2013-08-24 02:26:00,59.0,57.3,30.10,SE,146,0.0,0.0,94,0.00,,,0.00,Wunderground v.1.15,2013-08-24 07:26:00,
2013-08-24 02:32:00,58.8,57.1,30.10,SE,146,0.0,0.0,94,0.00,,,0.00,Wunderground v.1.15,2013-08-24 07:32:00,
2013-08-24 02:38:00,58.6,56.9,30.10,SE,146,0.0,1.0,94,0.00,,,0.00,Wunderground v.1.15,2013-08-24 07:38:00,
2013-08-24 02:44:00,58.6,56.9,30.10,SE,146,0.0,1.0,94,0.00,,,0.00,Wunderground v.1.15,2013-08-24 07:44:00,
2013-08-24 02:50:00,58.5,56.8,30.11,SE,146,0.0,1.0,94,0.00,,,0.00,Wunderground v.1.15,2013-08-24 07:50:00,
2013-08-24 02:56:00,58.4,56.7,30.11,WSW,250,0.0,2.0,94,0.00,,,0.00,Wunderground v.1.15,2013-08-24 07:56:00,
2013-08-24 03:01:00,58.6,57.2,30.11,WSW,250,0.0,2.0,95,0.00,,,0.00,Wunderground v.1.15,2013-08-24 08:01:00,
2013-08-24 03:06:00,58.7,57.0,30.11,NNW,338,0.0,0.0,94,0.00,,,0.00,Wunderground v.1.15,2013-08-24 08:06:00,
2013-08-24 03:12:00,58.4,56.7,30.12,NNW,338,0.0,0.0,94,0.00,,,0.00,Wunderground v.1.15,2013-08-24 08:12:00,
2013-08-24 03:17:00,58.2,56.5,30.12,NNW,338,0.0,0.0,94,0.00,,,0.00,Wunderground v.1.15,2013-08-24 08:17:00,
2013-08-24 03:23:00,58.2,56.5,30.12,NNW,338,0.0,0.0,94,0.00,,,0.00,Wunderground v.1.15,2013-08-24 08:23:00,
2013-08-24 03:28:00,58.0,56.3,30.12,NNW,338,0.0,0.0,94,0.00,,,0.00,Wunderground v.1.15,2013-08-24 08:28:00,
2013-08-24 03:34:00,58.0,56.3,30.12,SE,139,0.0,0.0,94,0.00,,,0.00,Wunderground v.1.15,2013-08-24 08:34:00,
2013-08-24 03:40:00,58.0,56.6,30.13,SE,139,0.0,0.0,95,0.00,,,0.00,Wunderground v.1.15,2013-08-24 08:40:00,
2013-08-24 03:45:00,58.1,56.7,30.12,SE,139,0.0,0.0,95,0.00,,,0.00,Wunderground v.1.15,2013-08-24 08:45:00,
2013-08-24 03:51:00,58.0,56.6,30.12,SE,139,0.0,0.0,95,0.00,,,0.00,Wunderground v.1.15,2013-08-24 08:51:00,
2013-08-24 03:56:00,57.9,56.2,30.13,SE,139,0.0,0.0,94,0.00,,,0.00,Wunderground v.1.15,2013-08-24 08:56:00,
2013-08-24 04:01:00,57.8,56.4,30.13,SE,139,0.0,0.0,95,0.00,,,0.00,Wunderground v.1.15,2013-08-24 09:01:00,
2013-08-24 04:07:00,57.7,56.3,30.13,SE,139,0.0,0.0,95,0.00,,,0.00,Wunderground v.1.15,2013-08-24 09:07:00,
2013-08-24 04:13:00,57.5,56.1,30.13,SE,139,0.0,0.0,95,0.00,,,0.00,Wunderground v.1.15,2013-08-24 09:13:00,
2013-08-24 04:19:00,57.3,55.6,30.13,SE,139,0.0,0.0,94,0.00,,,0.00,Wunderground v.1.15,2013-08-24 09:19:00,
2013-08-24 04:25:00,57.4,56.0,30.13,SE,139,0.0,0.0,95,0.00,,,0.00,Wunderground v.1.15,2013-08-24 09:25:00,
2013-08-24 04:31:00,57.5,56.1,30.13,SE,139,0.0,0.0,95,0.00,,,0.00,Wunderground v.1.15,2013-08-24 09:31:00,
2013-08-24 04:36:00,57.4,56.0,30.13,SE,139,0.0,0.0,95,0.00,,,0.00,Wunderground v.1.15,2013-08-24 09:36:00,
2013-08-24 04:41:00,57.3,55.9,30.13,SE,139,0.0,0.0,95,0.00,,,0.00,Wunderground v.1.15,2013-08-24 09:41:00,
2013-08-24 04:47:00,57.1,55.7,30.14,SE,139,0.0,0.0,95,0.00,,,0.00,Wunderground v.1.15,2013-08-24 09:47:00,
2013-08-24 04:53:00,56.9,55.5,30.14,SE,139,0.0,0.0,95,0.00,,,0.00,Wunderground v.1.15,2013-08-24 09:53:00,
2013-08-24 04:59:00,56.6,55.2,30.14,SE,139,0.0,0.0,95,0.00,,,0.00,Wunderground v.1.15,2013-08-24 09:59:00,
2013-08-24 05:05:00,56.6,55.2,30.14,SE,139,0.0,0.0,95,0.00,,,0.00,Wunderground v.1.15,2013-08-24 10:05:00,
2013-08-24 05:11:00,56.7,55.3,30.14,SE,139,0.0,0.0,95,0.00,,,0.00,Wunderground v.1.15,2013-08-24 10:11:00,
2013-08-24 05:17:00,56.5,55.1,30.14,SE,139,0.0,0.0,95,0.00,,,0.00,Wunderground v.1.15,2013-08-24 10:17:00,
2013-08-24 05:23:00,56.4,55.0,30.14,SE,139,0.0,0.0,95,0.00,,,0.00,Wunderground v.1.15,2013-08-24 10:23:00,
2013-08-24 05:29:00,56.2,54.8,30.14,SE,139,0.0,0.0,95,0.00,,,0.00,Wunderground v.1.15,2013-08-24 10:29:00,
2013-08-24 05:35:00,56.0,54.6,30.14,SE,139,0.0,0.0,95,0.00,,,0.00,Wunderground v.1.15,2013-08-24 10:35:00,
2013-08-24 05:40:00,55.9,54.5,30.14,SE,139,0.0,0.0,95,0.00,,,0.00,Wunderground v.1.15,2013-08-24 10:40:00,
2013-08-24 05:46:00,55.9,54.5,30.14,SE,139,0.0,0.0,95,0.00,,,0.00,Wunderground v.1.15,2013-08-24 10:46:00,
2013-08-24 05:51:00,55.9,54.5,30.14,SE,139,0.0,0.0,95,0.00,,,0.00,Wunderground v.1.15,2013-08-24 10:51:00,
2013-08-24 05:56:00,55.8,54.4,30.14,SE,139,0.0,0.0,95,0.00,,,0.00,Wunderground v.1.15,2013-08-24 10:56:00,
2013-08-24 06:01:00,55.6,54.2,30.14,SE,139,0.0,0.0,95,0.00,,,0.00,Wunderground v.1.15,2013-08-24 11:01:00,
2013-08-24 06:06:00,55.6,54.2,30.14,SE,139,0.0,0.0,95,0.00,,,0.00,Wunderground v.1.15,2013-08-24 11:06:00,
2013-08-24 06:11:00,55.5,54.1,30.14,SE,139,0.0,0.0,95,0.00,,,0.00,Wunderground v.1.15,2013-08-24 11:11:00,
2013-08-24 06:16:00,55.4,54.0,30.14,SE,139,0.0,0.0,95,0.00,,,0.00,Wunderground v.1.15,2013-08-24 11:16:00,
2013-08-24 06:22:00,55.3,53.9,30.15,SE,139,0.0,1.0,95,0.00,,,0.00,Wunderground v.1.15,2013-08-24 11:22:00,
2013-08-24 06:27:00,55.3,53.9,30.15,SE,139,0.0,0.0,95,0.00,,,0.00,Wunderground v.1.15,2013-08-24 11:27:00,
2013-08-24 06:33:00,55.4,54.0,30.15,SE,139,0.0,0.0,95,0.00,,,0.00,Wunderground v.1.15,2013-08-24 11:33:00,
2013-08-24 06:38:00,55.5,54.4,30.15,SE,139,0.0,0.0,96,0.00,,,0.00,Wunderground v.1.15,2013-08-24 11:38:00,
2013-08-24 06:43:00,55.5,54.4,30.15,SE,139,0.0,0.0,96,0.00,,,0.00,Wunderground v.1.15,2013-08-24 11:43:00,
2013-08-24 06:49:00,55.7,54.6,30.15,SE,139,0.0,0.0,96,0.00,,,0.00,Wunderground v.1.15,2013-08-24 11:49:00,
2013-08-24 06:54:00,55.9,54.8,30.15,SE,139,0.0,0.0,96,0.00,,,0.00,Wunderground v.1.15,2013-08-24 11:54:00,
2013-08-24 06:59:00,56.1,55.0,30.15,SE,139,0.0,0.0,96,0.00,,,0.00,Wunderground v.1.15,2013-08-24 11:59:00,
2013-08-24 07:05:00,56.4,55.3,30.15,SE,139,0.0,0.0,96,0.00,,,0.00,Wunderground v.1.15,2013-08-24 12:05:00,
2013-08-24 07:10:00,56.6,55.5,30.15,SE,144,0.0,2.0,96,0.00,,,0.00,Wunderground v.1.15,2013-08-24 12:10:00,
2013-08-24 07:16:00,57.0,55.9,30.15,SSE,163,0.0,0.0,96,0.00,,,0.00,Wunderground v.1.15,2013-08-24 12:16:00,
2013-08-24 07:21:00,57.2,56.1,30.15,SSE,165,0.0,1.0,96,0.00,,,0.00,Wunderground v.1.15,2013-08-24 12:21:00,
2013-08-24 07:26:00,57.5,56.4,30.16,SSE,162,0.0,0.0,96,0.00,,,0.00,Wunderground v.1.15,2013-08-24 12:26:00,
2013-08-24 07:32:00,57.7,56.6,30.15,SSE,162,0.0,1.0,96,0.00,,,0.00,Wunderground v.1.15,2013-08-24 12:32:00,
2013-08-24 07:37:00,58.0,56.9,30.15,South,173,0.0,2.0,96,0.00,,,0.00,Wunderground v.1.15,2013-08-24 12:37:00,
2013-08-24 07:43:00,58.3,57.2,30.15,SSE,147,1.0,1.0,96,0.00,,,0.00,Wunderground v.1.15,2013-08-24 12:43:00,
2013-08-24 07:48:00,58.6,57.5,30.16,SSE,148,0.0,1.0,96,0.00,,,0.00,Wunderground v.1.15,2013-08-24 12:48:00,
2013-08-24 07:54:00,59.2,57.8,30.16,SSW,202,0.0,3.0,95,0.00,,,0.00,Wunderground v.1.15,2013-08-24 12:54:00,
2013-08-24 07:59:00,59.9,57.9,30.16,South,173,1.0,3.0,93,0.00,,,0.00,Wunderground v.1.15,2013-08-24 12:59:00,
2013-08-24 08:04:00,60.7,57.7,30.16,South,180,1.0,3.0,90,0.00,,,0.00,Wunderground v.1.15,2013-08-24 13:04:00,
2013-08-24 08:10:00,61.7,57.8,30.16,SE,136,1.0,3.0,87,0.00,,,0.00,Wunderground v.1.15,2013-08-24 13:10:00,
2013-08-24 08:15:00,62.7,58.1,30.16,South,171,1.0,1.0,85,0.00,,,0.00,Wunderground v.1.15,2013-08-24 13:15:00,
2013-08-24 08:21:00,63.8,58.5,30.16,SE,140,1.0,1.0,83,0.00,,,0.00,Wunderground v.1.15,2013-08-24 13:21:00,
2013-08-24 08:26:00,64.7,58.4,30.16,ESE,117,0.0,3.0,80,0.00,,,0.00,Wunderground v.1.15,2013-08-24 13:26:00,
2013-08-24 08:32:00,65.6,59.3,30.16,SSE,150,1.0,3.0,80,0.00,,,0.00,Wunderground v.1.15,2013-08-24 13:32:00,
2013-08-24 08:37:00,66.2,58.0,30.15,SE,125,2.0,3.0,75,0.00,,,0.00,Wunderground v.1.15,2013-08-24 13:37:00,
2013-08-24 08:42:00,66.9,58.3,30.16,SE,141,2.0,4.0,74,0.00,,,0.00,Wunderground v.1.15,2013-08-24 13:42:00,
2013-08-24 08:48:00,67.5,57.0,30.15,SW,215,2.0,5.0,69,0.00,,,0.00,Wunderground v.1.15,2013-08-24 13:48:00,
2013-08-24 08:53:00,68.0,57.8,30.15,SE,142,3.0,3.0,70,0.00,,,0.00,Wunderground v.1.15,2013-08-24 13:53:00,
2013-08-24 08:59:00,68.5,57.5,30.15,SSE,155,3.0,7.0,68,0.00,,,0.00,Wunderground v.1.15,2013-08-24 13:59:00,
2013-08-24 09:04:00,69.0,57.6,30.15,SSE,150,3.0,3.0,67,0.00,,,0.00,Wunderground v.1.15,2013-08-24 14:04:00,
2013-08-24 09:10:00,69.5,57.6,30.15,ESE,111,3.0,8.0,66,0.00,,,0.00,Wunderground v.1.15,2013-08-24 14:10:00,
2013-08-24 09:15:00,69.9,57.2,30.15,SSE,153,3.0,6.0,64,0.00,,,0.00,Wunderground v.1.15,2013-08-24 14:15:00,
2013-08-24 09:20:00,70.1,57.4,30.15,SW,225,4.0,6.0,64,0.00,,,0.00,Wunderground v.1.15,2013-08-24 14:20:00,
2013-08-24 09:26:00,70.2,56.6,30.15,South,170,4.0,4.0,62,0.00,,,0.00,Wunderground v.1.15,2013-08-24 14:26:00,
2013-08-24 09:31:00,70.4,57.2,30.15,ESE,115,3.0,7.0,63,0.00,,,0.00,Wunderground v.1.15,2013-08-24 14:31:00,
2013-08-24 09:37:00,70.4,57.6,30.15,SSW,196,4.0,7.0,64,0.00,,,0.00,Wunderground v.1.15,2013-08-24 14:37:00,
2013-08-24 09:42:00,70.4,57.2,30.14,SE,133,4.0,7.0,63,0.00,,,0.00,Wunderground v.1.15,2013-08-24 14:42:00,
2013-08-24 09:48:00,70.7,57.9,30.15,NE,38,3.0,6.0,64,0.00,,,0.00,Wunderground v.1.15,2013-08-24 14:48:00,
2013-08-24 09:53:00,71.5,58.2,30.15,SSE,167,3.0,7.0,63,0.00,,,0.00,Wunderground v.1.15,2013-08-24 14:53:00,
2013-08-24 09:58:00,71.9,58.2,30.15,SSE,163,3.0,10.0,62,0.00,,,0.00,Wunderground v.1.15,2013-08-24 14:58:00,
2013-08-24 10:03:00,72.1,57.4,30.15,SSW,205,4.0,4.0,60,0.00,,,0.00,Wunderground v.1.15,2013-08-24 15:03:00,
2013-08-24 10:09:00,71.9,58.2,30.16,ESE,110,4.0,7.0,62,0.00,,,0.00,Wunderground v.1.15,2013-08-24 15:09:00,
2013-08-24 10:15:00,71.9,57.7,30.15,SSE,162,2.0,4.0,61,0.00,,,0.00,Wunderground v.1.15,2013-08-24 15:15:00,
2013-08-24 10:20:00,72.0,58.7,30.15,ESE,109,2.0,5.0,63,0.00,,,0.00,Wunderground v.1.15,2013-08-24 15:20:00,
2013-08-24 10:25:00,72.2,58.9,30.15,SE,144,2.0,4.0,63,0.00,,,0.00,Wunderground v.1.15,2013-08-24 15:25:00,
2013-08-24 10:31:00,72.5,57.4,30.15,SSW,211,4.0,7.0,59,0.00,,,0.00,Wunderground v.1.15,2013-08-24 15:31:00,
2013-08-24 10:36:00,72.9,58.2,30.15,ESE,117,5.0,7.0,60,0.00,,,0.00,Wunderground v.1.15,2013-08-24 15:36:00,
2013-08-24 10:41:00,73.4,58.7,30.15,East,94,5.0,9.0,60,0.00,,,0.00,Wunderground v.1.15,2013-08-24 15:41:00,
2013-08-24 10:47:00,73.8,57.6,30.14,ESE,119,6.0,7.0,57,0.00,,,0.00,Wunderground v.1.15,2013-08-24 15:47:00,
2013-08-24 10:52:00,73.5,58.3,30.14,SSW,205,5.0,8.0,59,0.00,,,0.00,Wunderground v.1.15,2013-08-24 15:52:00,
2013-08-24 10:58:00,73.5,58.3,30.14,ESE,111,3.0,5.0,59,0.00,,,0.00,Wunderground v.1.15,2013-08-24 15:58:00,
2013-08-24 11:04:00,73.7,58.9,30.14,SE,146,4.0,9.0,60,0.00,,,0.00,Wunderground v.1.15,2013-08-24 16:04:00,
2013-08-24 11:09:00,73.8,59.0,30.14,South,169,6.0,9.0,60,0.00,,,0.00,Wunderground v.1.15,2013-08-24 16:09:00,
2013-08-24 11:15:00,73.7,58.9,30.14,SE,127,6.0,10.0,60,0.00,,,0.00,Wunderground v.1.15,2013-08-24 16:15:00,
2013-08-24 11:20:00,73.6,59.3,30.14,South,188,6.0,10.0,61,0.00,,,0.00,Wunderground v.1.15,2013-08-24 16:20:00,
2013-08-24 11:25:00,73.7,59.4,30.15,East,101,3.0,4.0,61,0.00,,,0.00,Wunderground v.1.15,2013-08-24 16:25:00,
2013-08-24 11:31:00,73.9,59.1,30.14,SSE,148,4.0,6.0,60,0.00,,,0.00,Wunderground v.1.15,2013-08-24 16:31:00,
2013-08-24 11:36:00,73.8,59.0,30.15,SE,138,5.0,5.0,60,0.00,,,0.00,Wunderground v.1.15,2013-08-24 16:36:00,
2013-08-24 11:42:00,73.7,59.9,30.15,SSE,159,4.0,5.0,62,0.00,,,0.00,Wunderground v.1.15,2013-08-24 16:42:00,
2013-08-24 11:47:00,73.5,59.2,30.15,South,182,2.0,3.0,61,0.00,,,0.00,Wunderground v.1.15,2013-08-24 16:47:00,
2013-08-24 11:52:00,73.4,58.7,30.14,SSW,203,1.0,3.0,60,0.00,,,0.00,Wunderground v.1.15,2013-08-24 16:52:00,
2013-08-24 11:58:00,73.4,58.7,30.14,SE,140,2.0,3.0,60,0.00,,,0.00,Wunderground v.1.15,2013-08-24 16:58:00,
2013-08-24 12:04:00,73.4,59.6,30.14,East,100,2.0,2.0,62,0.00,,,0.00,Wunderground v.1.15,2013-08-24 17:04:00,
2013-08-24 12:09:00,73.8,60.9,30.14,South,190,2.0,4.0,64,0.00,,,0.00,Wunderground v.1.15,2013-08-24 17:09:00,
2013-08-24 12:14:00,74.2,59.9,30.14,ESE,119,2.0,6.0,61,0.00,,,0.00,Wunderground v.1.15,2013-08-24 17:14:00,
2013-08-24 12:20:00,74.3,59.5,30.14,SSE,147,3.0,7.0,60,0.00,,,0.00,Wunderground v.1.15,2013-08-24 17:20:00,
2013-08-24 12:25:00,74.4,60.1,30.13,SSE,153,4.0,7.0,61,0.00,,,0.00,Wunderground v.1.15,2013-08-24 17:25:00,
2013-08-24 12:31:00,74.5,59.2,30.14,SE,134,5.0,7.0,59,0.00,,,0.00,Wunderground v.1.15,2013-08-24 17:31:00,
2013-08-24 12:36:00,74.5,59.2,30.14,SE,133,4.0,6.0,59,0.00,,,0.00,Wunderground v.1.15,2013-08-24 17:36:00,
2013-08-24 12:42:00,74.3,58.1,30.13,SSE,150,4.0,6.0,57,0.00,,,0.00,Wunderground v.1.15,2013-08-24 17:42:00,
2013-08-24 12:47:00,74.2,58.5,30.13,ENE,70,3.0,5.0,58,0.00,,,0.00,Wunderground v.1.15,2013-08-24 17:47:00,
2013-08-24 12:53:00,74.3,59.0,30.13,SE,144,5.0,5.0,59,0.00,,,0.00,Wunderground v.1.15,2013-08-24 17:53:00,
2013-08-24 12:58:00,74.5,59.2,30.13,East,96,6.0,8.0,59,0.00,,,0.00,Wunderground v.1.15,2013-08-24 17:58:00,
2013-08-24 13:04:00,74.5,59.2,30.13,SE,145,5.0,5.0,59,0.00,,,0.00,Wunderground v.1.15,2013-08-24 18:04:00,
2013-08-24 13:09:00,74.4,60.1,30.13,SE,132,4.0,7.0,61,0.00,,,0.00,Wunderground v.1.15,2013-08-24 18:09:00,
2013-08-24 13:14:00,74.5,60.2,30.12,SSE,161,4.0,8.0,61,0.00,,,0.00,Wunderground v.1.15,2013-08-24 18:14:00,
2013-08-24 13:20:00,74.7,61.7,30.12,SSE,151,5.0,8.0,64,0.00,,,0.00,Wunderground v.1.15,2013-08-24 18:20:00,
2013-08-24 13:25:00,74.7,60.8,30.12,SE,143,5.0,9.0,62,0.00,,,0.00,Wunderground v.1.15,2013-08-24 18:25:00,
2013-08-24 13:31:00,74.8,61.4,30.12,ESE,119,5.0,10.0,63,0.00,,,0.00,Wunderground v.1.15,2013-08-24 18:31:00,
2013-08-24 13:36:00,74.8,60.9,30.11,ESE,107,5.0,14.0,62,0.00,,,0.00,Wunderground v.1.15,2013-08-24 18:36:00,
2013-08-24 13:41:00,75.0,61.5,30.11,SE,126,6.0,14.0,63,0.00,,,0.00,Wunderground v.1.15,2013-08-24 18:41:00,
2013-08-24 13:47:00,75.1,61.6,30.10,SE,133,7.0,11.0,63,0.00,,,0.00,Wunderground v.1.15,2013-08-24 18:47:00,
2013-08-24 13:52:00,75.1,62.1,30.10,SE,127,7.0,12.0,64,0.00,,,0.00,Wunderground v.1.15,2013-08-24 18:52:00,
2013-08-24 13:58:00,74.9,62.3,30.10,SE,143,7.0,9.0,65,0.00,,,0.00,Wunderground v.1.15,2013-08-24 18:58:00,
2013-08-24 14:04:00,74.7,62.6,30.10,SE,133,5.0,5.0,66,0.00,,,0.00,Wunderground v.1.15,2013-08-24 19:04:00,
2013-08-24 14:09:00,74.6,62.9,30.10,SE,125,3.0,6.0,67,0.00,,,0.00,Wunderground v.1.15,2013-08-24 19:09:00,
2013-08-24 14:14:00,74.9,63.6,30.09,SSE,156,4.0,4.0,68,0.00,,,0.00,Wunderground v.1.15,2013-08-24 19:14:00,
2013-08-24 14:20:00,75.6,63.9,30.09,SSE,156,6.0,11.0,67,0.00,,,0.00,Wunderground v.1.15,2013-08-24 19:20:00,
2013-08-24 14:26:00,76.3,64.5,30.09,SE,146,7.0,13.0,67,0.00,,,0.00,Wunderground v.1.15,2013-08-24 19:26:00,
2013-08-24 14:31:00,76.7,64.0,30.09,SE,141,6.0,13.0,65,0.00,,,0.00,Wunderground v.1.15,2013-08-24 19:31:00,
2013-08-24 14:37:00,76.9,63.8,30.09,ESE,120,7.0,11.0,64,0.00,,,0.00,Wunderground v.1.15,2013-08-24 19:37:00,
2013-08-24 14:42:00,77.0,64.3,30.09,SE,124,7.0,11.0,65,0.00,,,0.00,Wunderground v.1.15,2013-08-24 19:42:00,
2013-08-24 14:47:00,77.0,63.0,30.08,ESE,110,6.0,11.0,62,0.00,,,0.00,Wunderground v.1.15,2013-08-24 19:47:00,
2013-08-24 14:53:00,77.0,63.4,30.08,SE,140,6.0,6.0,63,0.00,,,0.00,Wunderground v.1.15,2013-08-24 19:53:00,
2013-08-24 14:58:00,77.3,63.7,30.08,SE,135,7.0,9.0,63,0.00,,,0.00,Wunderground v.1.15,2013-08-24 19:58:00,
2013-08-24 15:03:00,77.7,63.6,30.07,SE,131,7.0,7.0,62,0.00,,,0.00,Wunderground v.1.15,2013-08-24 20:03:00,
2013-08-24 15:09:00,77.9,63.4,30.07,ESE,117,9.0,11.0,61,0.00,,,0.00,Wunderground v.1.15,2013-08-24 20:09:00,
2013-08-24 15:15:00,78.4,63.8,30.07,SE,145,9.0,12.0,61,0.00,,,0.00,Wunderground v.1.15,2013-08-24 20:15:00,
2013-08-24 15:21:00,78.7,64.1,30.07,SE,127,9.0,12.0,61,0.00,,,0.00,Wunderground v.1.15,2013-08-24 20:21:00,
2013-08-24 15:26:00,79.2,64.6,30.06,SE,142,9.0,15.0,61,0.00,,,0.00,Wunderground v.1.15,2013-08-24 20:26:00,
2013-08-24 15:32:00,79.6,65.0,30.06,SE,146,9.0,15.0,61,0.00,,,0.00,Wunderground v.1.15,2013-08-24 20:32:00,
2013-08-24 15:38:00,79.7,65.1,30.06,ESE,121,8.0,13.0,61,0.00,,,0.00,Wunderground v.1.15,2013-08-24 20:38:00,
2013-08-24 15:43:00,80.0,65.8,30.06,ESE,102,8.0,8.0,62,0.00,,,0.00,Wunderground v.1.15,2013-08-24 20:43:00,
2013-08-24 15:49:00,80.3,66.1,30.06,SE,127,6.0,8.0,62,0.00,,,0.00,Wunderground v.1.15,2013-08-24 20:49:00,
2013-08-24 15:54:00,80.3,66.6,30.06,ESE,118,6.0,8.0,63,0.00,,,0.00,Wunderground v.1.15,2013-08-24 20:54:00,
2013-08-24 15:59:00,80.5,66.7,30.06,SE,146,6.0,8.0,63,0.00,,,0.00,Wunderground v.1.15,2013-08-24 20:59:00,
2013-08-24 16:05:00,80.7,67.4,30.06,ESE,109,7.0,11.0,64,0.00,,,0.00,Wunderground v.1.15,2013-08-24 21:05:00,
2013-08-24 16:10:00,81.0,68.1,30.06,SSE,162,5.0,11.0,65,0.00,,,0.00,Wunderground v.1.15,2013-08-24 21:10:00,
2013-08-24 16:16:00,81.1,67.8,30.05,South,170,5.0,8.0,64,0.00,,,0.00,Wunderground v.1.15,2013-08-24 21:16:00,
2013-08-24 16:21:00,81.3,68.0,30.05,SE,128,5.0,11.0,64,0.00,,,0.00,Wunderground v.1.15,2013-08-24 21:21:00,
2013-08-24 16:27:00,81.4,68.9,30.05,SE,134,5.0,6.0,66,0.00,,,0.00,Wunderground v.1.15,2013-08-24 21:27:00,
2013-08-24 16:32:00,81.7,68.8,30.05,NE,53,4.0,7.0,65,0.00,,,0.00,Wunderground v.1.15,2013-08-24 21:32:00,
2013-08-24 16:37:00,82.1,68.7,30.05,SW,217,4.0,6.0,64,0.00,,,0.00,Wunderground v.1.15,2013-08-24 21:37:00,
2013-08-24 16:43:00,82.2,68.8,30.05,SSE,149,5.0,8.0,64,0.00,,,0.00,Wunderground v.1.15,2013-08-24 21:43:00,
2013-08-24 16:48:00,82.3,69.4,30.05,SSE,154,5.0,9.0,65,0.00,,,0.00,Wunderground v.1.15,2013-08-24 21:48:00,
2013-08-24 16:53:00,82.4,69.4,30.05,SE,145,4.0,8.0,65,0.00,,,0.00,Wunderground v.1.15,2013-08-24 21:53:00,
2013-08-24 16:59:00,82.3,69.4,30.05,South,175,5.0,8.0,65,0.00,,,0.00,Wunderground v.1.15,2013-08-24 21:59:00,
2013-08-24 17:04:00,82.3,69.8,30.05,South,171,3.0,5.0,66,0.00,,,0.00,Wunderground v.1.15,2013-08-24 22:04:00,
2013-08-24 17:10:00,82.0,69.5,30.04,SSE,150,3.0,8.0,66,0.00,,,0.00,Wunderground v.1.15,2013-08-24 22:10:00,
2013-08-24 17:15:00,81.6,69.6,30.04,SSE,150,4.0,7.0,67,0.00,,,0.00,Wunderground v.1.15,2013-08-24 22:15:00,
2013-08-24 17:21:00,81.2,69.2,30.04,North,351,4.0,8.0,67,0.00,,,0.00,Wunderground v.1.15,2013-08-24 22:21:00,
2013-08-24 17:26:00,81.2,69.6,30.04,WSW,243,3.0,5.0,68,0.00,,,0.00,Wunderground v.1.15,2013-08-24 22:26:00,
2013-08-24 17:31:00,81.3,69.7,30.04,NNE,22,4.0,9.0,68,0.00,,,0.00,Wunderground v.1.15,2013-08-24 22:31:00,
2013-08-24 17:37:00,81.4,69.4,30.04,NNE,17,4.0,9.0,67,0.00,,,0.00,Wunderground v.1.15,2013-08-24 22:37:00,
2013-08-24 17:42:00,81.5,69.5,30.04,NE,45,4.0,9.0,67,0.00,,,0.00,Wunderground v.1.15,2013-08-24 22:42:00,
2013-08-24 17:48:00,81.5,69.5,30.03,NNW,336,4.0,7.0,67,0.00,,,0.00,Wunderground v.1.15,2013-08-24 22:48:00,
2013-08-24 17:53:00,81.5,69.5,30.03,SW,217,4.0,4.0,67,0.00,,,0.00,Wunderground v.1.15,2013-08-24 22:53:00,
2013-08-24 17:59:00,81.4,69.4,30.03,ESE,119,4.0,5.0,67,0.00,,,0.00,Wunderground v.1.15,2013-08-24 22:59:00,
2013-08-24 18:04:00,81.3,69.7,30.03,ESE,113,4.0,4.0,68,0.00,,,0.00,Wunderground v.1.15,2013-08-24 23:04:00,
2013-08-24 18:09:00,81.2,69.6,30.03,SSE,152,4.0,5.0,68,0.00,,,0.00,Wunderground v.1.15,2013-08-24 23:09:00,
2013-08-24 18:15:00,81.0,69.4,30.03,SE,142,4.0,4.0,68,0.00,,,0.00,Wunderground v.1.15,2013-08-24 23:15:00,
2013-08-24 18:20:00,81.0,69.4,30.03,South,186,4.0,5.0,68,0.00,,,0.00,Wunderground v.1.15,2013-08-24 23:20:00,
2013-08-24 18:26:00,81.0,69.9,30.03,West,260,4.0,5.0,69,0.00,,,0.00,Wunderground v.1.15,2013-08-24 23:26:00,
2013-08-24 18:31:00,80.7,69.6,30.02,North,360,4.0,9.0,69,0.00,,,0.00,Wunderground v.1.15,2013-08-24 23:31:00,
2013-08-24 18:37:00,80.5,69.8,30.02,East,100,4.0,5.0,70,0.00,,,0.00,Wunderground v.1.15,2013-08-24 23:37:00,
2013-08-24 18:42:00,80.2,69.5,30.02,SE,133,3.0,6.0,70,0.00,,,0.00,Wunderground v.1.15,2013-08-24 23:42:00,
2013-08-24 18:48:00,80.0,69.7,30.02,SSE,164,2.0,4.0,71,0.00,,,0.00,Wunderground v.1.15,2013-08-24 23:48:00,
2013-08-24 18:53:00,79.7,69.5,30.02,SW,223,3.0,5.0,71,0.00,,,0.00,Wunderground v.1.15,2013-08-24 23:53:00,
2013-08-24 18:59:00,79.3,69.1,30.02,ESE,117,3.0,5.0,71,0.00,,,0.00,Wunderground v.1.15,2013-08-24 23:59:00,
2013-08-24 19:04:00,79.0,69.2,30.02,South,175,3.0,6.0,72,0.00,,,0.00,Wunderground v.1.15,2013-08-25 00:04:00,
2013-08-24 19:10:00,78.6,69.2,30.02,South,178,2.0,6.0,73,0.00,,,0.00,Wunderground v.1.15,2013-08-25 00:10:00,
2013-08-24 19:15:00,78.2,69.2,30.02,SSW,199,1.0,1.0,74,0.00,,,0.00,Wunderground v.1.15,2013-08-25 00:15:00,
2013-08-24 19:21:00,77.9,69.3,30.02,SSE,154,1.0,3.0,75,0.00,,,0.00,Wunderground v.1.15,2013-08-25 00:21:00,
2013-08-24 19:26:00,77.6,69.0,30.02,SSE,155,2.0,3.0,75,0.00,,,0.00,Wunderground v.1.15,2013-08-25 00:26:00,
2013-08-24 19:32:00,77.2,69.0,30.02,SE,141,2.0,3.0,76,0.00,,,0.00,Wunderground v.1.15,2013-08-25 00:32:00,
2013-08-24 19:37:00,77.0,68.9,30.02,SE,136,1.0,7.0,76,0.00,,,0.00,Wunderground v.1.15,2013-08-25 00:37:00,
2013-08-24 19:43:00,76.7,68.9,30.02,SE,126,1.0,2.0,77,0.00,,,0.00,Wunderground v.1.15,2013-08-25 00:43:00,
2013-08-24 19:48:00,76.4,68.7,30.02,SSE,151,2.0,2.0,77,0.00,,,0.00,Wunderground v.1.15,2013-08-25 00:48:00,
2013-08-24 19:54:00,76.2,68.5,30.02,South,173,2.0,5.0,77,0.00,,,0.00,Wunderground v.1.15,2013-08-25 00:54:00,
2013-08-24 19:59:00,76.1,68.7,30.02,SSE,159,2.0,7.0,78,0.00,,,0.00,Wunderground v.1.15,2013-08-25 00:59:00,
2013-08-24 20:05:00,76.0,68.6,30.02,SSE,155,2.0,6.0,78,0.00,,,0.00,Wunderground v.1.15,2013-08-25 01:05:00,
2013-08-24 20:11:00,76.0,68.6,30.02,ENE,67,2.0,6.0,78,0.00,,,0.00,Wunderground v.1.15,2013-08-25 01:11:00,
2013-08-24 20:16:00,75.9,68.5,30.02,SSE,160,3.0,7.0,78,0.00,,,0.00,Wunderground v.1.15,2013-08-25 01:16:00,
2013-08-24 20:22:00,75.8,68.4,30.03,SE,144,3.0,7.0,78,0.00,,,0.00,Wunderground v.1.15,2013-08-25 01:22:00,
2013-08-24 20:27:00,75.7,68.7,30.03,WSW,252,2.0,4.0,79,0.00,,,0.00,Wunderground v.1.15,2013-08-25 01:27:00,
2013-08-24 20:33:00,75.6,68.6,30.03,SW,231,2.0,4.0,79,0.00,,,0.00,Wunderground v.1.15,2013-08-25 01:33:00,
2013-08-24 20:38:00,75.4,68.4,30.03,South,190,3.0,5.0,79,0.00,,,0.00,Wunderground v.1.15,2013-08-25 01:38:00,
2013-08-24 20:44:00,75.3,68.3,30.03,ESE,114,3.0,3.0,79,0.00,,,0.00,Wunderground v.1.15,2013-08-25 01:44:00,
2013-08-24 20:50:00,75.1,68.5,30.03,WSW,238,2.0,6.0,80,0.00,,,0.00,Wunderground v.1.15,2013-08-25 01:50:00,
2013-08-24 20:56:00,75.1,68.5,30.03,SSE,168,2.0,3.0,80,0.00,,,0.00,Wunderground v.1.15,2013-08-25 01:56:00,
2013-08-24 21:01:00,75.0,68.4,30.03,NE,47,3.0,4.0,80,0.00,,,0.00,Wunderground v.1.15,2013-08-25 02:01:00,
2013-08-24 21:07:00,74.9,68.3,30.03,East,96,3.0,5.0,80,0.00,,,0.00,Wunderground v.1.15,2013-08-25 02:07:00,
2013-08-24 21:13:00,74.9,68.7,30.03,SE,142,3.0,3.0,81,0.00,,,0.00,Wunderground v.1.15,2013-08-25 02:13:00,
2013-08-24 21:19:00,74.8,68.6,30.03,South,172,2.0,5.0,81,0.00,,,0.00,Wunderground v.1.15,2013-08-25 02:19:00,
2013-08-24 21:25:00,74.7,68.5,30.03,ESE,117,3.0,6.0,81,0.00,,,0.00,Wunderground v.1.15,2013-08-25 02:25:00,
2013-08-24 21:31:00,74.7,68.5,30.03,South,175,3.0,6.0,81,0.00,,,0.00,Wunderground v.1.15,2013-08-25 02:31:00,
2013-08-24 21:37:00,74.7,68.5,30.03,South,175,3.0,8.0,81,0.00,,,0.00,Wunderground v.1.15,2013-08-25 02:37:00,
2013-08-24 21:43:00,74.6,68.4,30.02,SE,138,3.0,3.0,81,0.00,,,0.00,Wunderground v.1.15,2013-08-25 02:43:00,
2013-08-24 21:49:00,74.5,68.3,30.02,ENE,57,3.0,7.0,81,0.00,,,0.00,Wunderground v.1.15,2013-08-25 02:49:00,
2013-08-24 21:55:00,74.4,68.2,30.02,North,9,3.0,4.0,81,0.00,,,0.00,Wunderground v.1.15,2013-08-25 02:55:00,
2013-08-24 22:01:00,74.2,68.0,30.01,NE,40,3.0,4.0,81,0.00,,,0.00,Wunderground v.1.15,2013-08-25 03:01:00,
2013-08-24 22:07:00,74.2,68.0,30.01,SE,130,4.0,7.0,81,0.00,,,0.00,Wunderground v.1.15,2013-08-25 03:07:00,
2013-08-24 22:13:00,74.2,68.0,30.01,ESE,113,4.0,5.0,81,0.00,,,0.00,Wunderground v.1.15,2013-08-25 03:13:00,
2013-08-24 22:19:00,74.2,68.0,30.01,South,188,3.0,7.0,81,0.00,,,0.00,Wunderground v.1.15,2013-08-25 03:19:00,
2013-08-24 22:25:00,74.2,67.6,30.01,SSW,212,4.0,6.0,80,0.00,,,0.00,Wunderground v.1.15,2013-08-25 03:25:00,
2013-08-24 22:30:00,74.1,67.5,30.01,West,265,3.0,7.0,80,0.00,,,0.00,Wunderground v.1.15,2013-08-25 03:30:00,
2013-08-24 22:36:00,74.0,67.8,30.00,South,186,4.0,10.0,81,0.00,,,0.00,Wunderground v.1.15,2013-08-25 03:36:00,
2013-08-24 22:42:00,74.0,67.8,30.01,ENE,64,5.0,10.0,81,0.00,,,0.00,Wunderground v.1.15,2013-08-25 03:42:00,
2013-08-24 22:48:00,73.9,67.3,30.00,SSW,213,4.0,5.0,80,0.00,,,0.00,Wunderground v.1.15,2013-08-25 03:48:00,
2013-08-24 22:54:00,73.9,67.3,30.00,ESE,118,4.0,4.0,80,0.00,,,0.00,Wunderground v.1.15,2013-08-25 03:54:00,
2013-08-24 23:00:00,73.9,67.3,30.01,SW,214,3.0,5.0,80,0.00,,,0.00,Wunderground v.1.15,2013-08-25 04:00:00,
2013-08-24 23:01:00,73.8,67.2,30.00,North,355,3.0,5.0,80,0.00,,,0.00,Wunderground v.1.15,2013-08-25 04:01:00,
2013-08-24 23:02:00,73.8,67.2,30.01,ESE,120,3.0,5.0,80,0.00,,,0.00,Wunderground v.1.15,2013-08-25 04:02:00,
2013-08-24 23:07:00,73.7,67.1,30.01,NNE,24,2.0,4.0,80,0.00,,,0.00,Wunderground v.1.15,2013-08-25 04:07:00,
2013-08-24 23:10:00,73.6,67.0,30.01,SSE,165,2.0,4.0,80,0.00,,,0.00,Wunderground v.1.15,2013-08-25 04:10:00,
2013-08-24 23:13:00,73.6,67.0,30.01,SE,136,2.0,2.0,80,0.00,,,0.00,Wunderground v.1.15,2013-08-25 04:13:00,
2013-08-24 23:18:00,73.5,66.9,30.00,South,181,3.0,7.0,80,0.00,,,0.00,Wunderground v.1.15,2013-08-25 04:18:00,
2013-08-24 23:24:00,73.4,66.9,30.01,SE,138,3.0,10.0,80,0.00,,,0.00,Wunderground v.1.15,2013-08-25 04:24:00,
2013-08-24 23:30:00,73.2,67.0,30.01,SE,124,3.0,10.0,81,0.00,,,0.00,Wunderground v.1.15,2013-08-25 04:30:00,
2013-08-24 23:36:00,73.2,67.0,30.01,ESE,112,3.0,3.0,81,0.00,,,0.00,Wunderground v.1.15,2013-08-25 04:36:00,
2013-08-24 23:42:00,73.2,67.0,30.01,SE,136,3.0,5.0,81,0.00,,,0.00,Wunderground v.1.15,2013-08-25 04:42:00,
2013-08-24 23:48:00,73.1,66.9,30.01,SSW,213,3.0,7.0,81,0.00,,,0.00,Wunderground v.1.15,2013-08-25 04:48:00,
2013-08-24 23:53:00,73.0,66.8,30.01,ESE,121,3.0,3.0,81,0.00,,,0.00,Wunderground v.1.15,2013-08-25 04:53:00,
2013-08-24 23:59:00,72.9,67.1,30.01,SSW,202,3.0,9.0,82,0.00,,,0.00,Wunderground v.1.15,2013-08-25 04:59:00,